Missouri City, Missouri
Current Conditions -  °F | °C
As of 6:55 PM on Saturday 25 Oct 2014 (Local Time) from KGPH Reporting Station
Clear Clear  
Wind Chill: 70°   Ceiling: Unl
Heat Index: 70°   Visibility: 10mi
Dew Point: 54°   Wind: 0mph
Humidity: 56%   Direction: NA
Pressure: 30.02"   Gusts: NA
Location:  39.24°N, 94.29°W
Report Text: KGPH 252355Z AUTO 00000KT 10SM CLR 21/12 A3002 RMK AO2
Loading
Personal Weather Stations






























Interactive Weather Map
Tropical Storm Tracking
New forecast layout! Learn more

10-Day Weather Forecast

Advertisements
Track Severe Weather on mobile